sensor_id;sensor_type;location;lat;lon;timestamp;temperature;humidity
42019;DHT22;27703;51.980;5.848;2022-12-18T00:01:04;-2.20;99.90
42019;DHT22;27703;51.980;5.848;2022-12-18T00:03:35;-2.20;99.90
42019;DHT22;27703;51.980;5.848;2022-12-18T00:06:01;-2.20;99.90
42019;DHT22;27703;51.980;5.848;2022-12-18T00:08:27;-2.20;99.90
42019;DHT22;27703;51.980;5.848;2022-12-18T00:10:53;-2.20;99.90
42019;DHT22;27703;51.980;5.848;2022-12-18T00:13:19;-2.20;99.90
42019;DHT22;27703;51.980;5.848;2022-12-18T00:15:44;-2.20;99.90
42019;DHT22;27703;51.980;5.848;2022-12-18T00:18:10;-2.20;99.90
42019;DHT22;27703;51.980;5.848;2022-12-18T00:20:37;-2.30;99.90
42019;DHT22;27703;51.980;5.848;2022-12-18T00:23:03;-2.30;99.90
42019;DHT22;27703;51.980;5.848;2022-12-18T00:25:29;-2.30;99.90
42019;DHT22;27703;51.980;5.848;2022-12-18T00:27:55;-2.30;99.90
42019;DHT22;27703;51.980;5.848;2022-12-18T00:30:20;-2.40;99.90
42019;DHT22;27703;51.980;5.848;2022-12-18T00:32:46;-2.40;99.90
42019;DHT22;27703;51.980;5.848;2022-12-18T00:35:12;-2.40;99.90
42019;DHT22;27703;51.980;5.848;2022-12-18T00:37:37;-2.40;99.90
42019;DHT22;27703;51.980;5.848;2022-12-18T00:40:03;-2.50;99.90
42019;DHT22;27703;51.980;5.848;2022-12-18T00:42:29;-2.50;99.90
42019;DHT22;27703;51.980;5.848;2022-12-18T00:45:13;-2.50;99.90
42019;DHT22;27703;51.980;5.848;2022-12-18T00:47:39;-2.50;99.90
42019;DHT22;27703;51.980;5.848;2022-12-18T00:50:05;-2.50;99.90
42019;DHT22;27703;51.980;5.848;2022-12-18T00:52:31;-2.50;99.90
42019;DHT22;27703;51.980;5.848;2022-12-18T00:54:56;-2.50;99.90
42019;DHT22;27703;51.980;5.848;2022-12-18T00:57:22;-2.60;99.90
42019;DHT22;27703;51.980;5.848;2022-12-18T00:59:47;-2.50;99.90
42019;DHT22;27703;51.980;5.848;2022-12-18T01:02:13;-2.50;99.90
42019;DHT22;27703;51.980;5.848;2022-12-18T01:04:38;-2.60;99.90
42019;DHT22;27703;51.980;5.848;2022-12-18T01:07:04;-2.60;99.90
42019;DHT22;27703;51.980;5.848;2022-12-18T01:09:29;-2.60;99.90
42019;DHT22;27703;51.980;5.848;2022-12-18T01:11:55;-2.60;99.90
42019;DHT22;27703;51.980;5.848;2022-12-18T01:14:20;-2.60;99.90
42019;DHT22;27703;51.980;5.848;2022-12-18T01:16:46;-2.60;99.90
42019;DHT22;27703;51.980;5.848;2022-12-18T01:19:11;-2.60;99.90
42019;DHT22;27703;51.980;5.848;2022-12-18T01:21:37;-2.60;99.90
42019;DHT22;27703;51.980;5.848;2022-12-18T01:24:03;-2.60;99.90
42019;DHT22;27703;51.980;5.848;2022-12-18T01:26:29;-2.60;99.90
42019;DHT22;27703;51.980;5.848;2022-12-18T01:28:58;-2.70;99.90
42019;DHT22;27703;51.980;5.848;2022-12-18T01:31:28;-2.70;99.90
42019;DHT22;27703;51.980;5.848;2022-12-18T01:33:55;-2.70;99.90
42019;DHT22;27703;51.980;5.848;2022-12-18T01:36:23;-2.70;99.90
42019;DHT22;27703;51.980;5.848;2022-12-18T01:38:50;-2.70;99.90
42019;DHT22;27703;51.980;5.848;2022-12-18T01:41:18;-2.70;99.90
42019;DHT22;27703;51.980;5.848;2022-12-18T01:43:50;-2.70;99.90
42019;DHT22;27703;51.980;5.848;2022-12-18T01:46:18;-2.70;99.90
42019;DHT22;27703;51.980;5.848;2022-12-18T01:48:47;-2.70;99.90
42019;DHT22;27703;51.980;5.848;2022-12-18T01:51:13;-2.70;99.90
42019;DHT22;27703;51.980;5.848;2022-12-18T01:53:40;-2.70;99.90
42019;DHT22;27703;51.980;5.848;2022-12-18T01:56:06;-2.70;99.90
42019;DHT22;27703;51.980;5.848;2022-12-18T01:58:54;-2.70;99.90
42019;DHT22;27703;51.980;5.848;2022-12-18T02:01:23;-2.70;99.90
42019;DHT22;27703;51.980;5.848;2022-12-18T02:03:49;-2.70;99.90
42019;DHT22;27703;51.980;5.848;2022-12-18T02:06:35;-2.80;99.90
42019;DHT22;27703;51.980;5.848;2022-12-18T02:11:49;-2.80;99.90
42019;DHT22;27703;51.980;5.848;2022-12-18T02:16:52;-2.80;99.90
42019;DHT22;27703;51.980;5.848;2022-12-18T02:19:40;-2.80;99.90
42019;DHT22;27703;51.980;5.848;2022-12-18T02:25:09;-2.80;99.90
42019;DHT22;27703;51.980;5.848;2022-12-18T02:27:37;-2.80;99.90
42019;DHT22;27703;51.980;5.848;2022-12-18T02:30:06;-2.80;99.90
42019;DHT22;27703;51.980;5.848;2022-12-18T02:32:39;-2.80;99.90
42019;DHT22;27703;51.980;5.848;2022-12-18T02:35:09;-2.80;99.90
42019;DHT22;27703;51.980;5.848;2022-12-18T02:37:35;-2.80;99.90
42019;DHT22;27703;51.980;5.848;2022-12-18T02:40:02;-2.80;99.90
42019;DHT22;27703;51.980;5.848;2022-12-18T02:42:28;-2.80;99.90
42019;DHT22;27703;51.980;5.848;2022-12-18T02:44:54;-2.80;99.90
42019;DHT22;27703;51.980;5.848;2022-12-18T02:47:28;-2.80;99.90
42019;DHT22;27703;51.980;5.848;2022-12-18T02:50:01;-2.80;99.90
42019;DHT22;27703;51.980;5.848;2022-12-18T02:52:42;-2.80;99.90
42019;DHT22;27703;51.980;5.848;2022-12-18T02:55:34;-2.70;99.90
42019;DHT22;27703;51.980;5.848;2022-12-18T02:58:11;-2.80;99.90
42019;DHT22;27703;51.980;5.848;2022-12-18T03:01:03;-2.80;99.90
42019;DHT22;27703;51.980;5.848;2022-12-18T03:03:56;-2.80;99.90
42019;DHT22;27703;51.980;5.848;2022-12-18T03:06:33;-2.80;99.90
42019;DHT22;27703;51.980;5.848;2022-12-18T03:09:09;-2.80;99.90
42019;DHT22;27703;51.980;5.848;2022-12-18T03:11:39;-2.80;99.90
42019;DHT22;27703;51.980;5.848;2022-12-18T03:14:26;-2.90;99.90
42019;DHT22;27703;51.980;5.848;2022-12-18T03:16:59;-2.90;99.90
42019;DHT22;27703;51.980;5.848;2022-12-18T03:19:26;-2.90;99.90
42019;DHT22;27703;51.980;5.848;2022-12-18T03:21:55;-2.90;99.90
42019;DHT22;27703;51.980;5.848;2022-12-18T03:24:22;-2.90;99.90
42019;DHT22;27703;51.980;5.848;2022-12-18T03:27:00;-2.90;99.90
42019;DHT22;27703;51.980;5.848;2022-12-18T03:32:04;-2.90;99.90
42019;DHT22;27703;51.980;5.848;2022-12-18T03:34:33;-3.00;99.90
42019;DHT22;27703;51.980;5.848;2022-12-18T03:37:03;-2.90;99.90
42019;DHT22;27703;51.980;5.848;2022-12-18T03:39:29;-2.90;99.90
42019;DHT22;27703;51.980;5.848;2022-12-18T03:42:10;-2.90;99.90
42019;DHT22;27703;51.980;5.848;2022-12-18T03:44:49;-2.90;99.90
42019;DHT22;27703;51.980;5.848;2022-12-18T03:47:31;-2.90;99.90
42019;DHT22;27703;51.980;5.848;2022-12-18T03:50:20;-2.90;99.90
42019;DHT22;27703;51.980;5.848;2022-12-18T03:52:52;-2.90;99.90
42019;DHT22;27703;51.980;5.848;2022-12-18T03:55:21;-2.90;99.90
42019;DHT22;27703;51.980;5.848;2022-12-18T03:57:48;-2.90;99.90
42019;DHT22;27703;51.980;5.848;2022-12-18T04:00:17;-3.00;99.90
42019;DHT22;27703;51.980;5.848;2022-12-18T04:02:45;-2.90;99.90
42019;DHT22;27703;51.980;5.848;2022-12-18T04:05:14;-3.00;99.90
42019;DHT22;27703;51.980;5.848;2022-12-18T04:07:41;-3.00;99.90
42019;DHT22;27703;51.980;5.848;2022-12-18T04:10:11;-2.90;99.90
42019;DHT22;27703;51.980;5.848;2022-12-18T04:12:37;-3.00;99.90
42019;DHT22;27703;51.980;5.848;2022-12-18T04:15:03;-3.00;99.90
42019;DHT22;27703;51.980;5.848;2022-12-18T04:17:29;-3.00;99.90
42019;DHT22;27703;51.980;5.848;2022-12-18T04:19:55;-3.00;99.90
42019;DHT22;27703;51.980;5.848;2022-12-18T04:22:20;-3.00;99.90
42019;DHT22;27703;51.980;5.848;2022-12-18T04:24:46;-3.00;99.90
42019;DHT22;27703;51.980;5.848;2022-12-18T04:27:11;-3.00;99.90
42019;DHT22;27703;51.980;5.848;2022-12-18T04:29:37;-3.00;99.90
42019;DHT22;27703;51.980;5.848;2022-12-18T04:32:03;-3.00;99.90
42019;DHT22;27703;51.980;5.848;2022-12-18T04:34:29;-3.00;99.90
42019;DHT22;27703;51.980;5.848;2022-12-18T04:36:54;-3.10;99.90
42019;DHT22;27703;51.980;5.848;2022-12-18T04:39:20;-3.10;99.90
42019;DHT22;27703;51.980;5.848;2022-12-18T04:41:45;-3.00;99.90
42019;DHT22;27703;51.980;5.848;2022-12-18T04:44:11;-3.00;99.90
42019;DHT22;27703;51.980;5.848;2022-12-18T04:46:36;-3.00;99.90
42019;DHT22;27703;51.980;5.848;2022-12-18T04:49:02;-3.00;99.90
42019;DHT22;27703;51.980;5.848;2022-12-18T04:51:28;-3.00;99.90
42019;DHT22;27703;51.980;5.848;2022-12-18T04:53:54;-3.00;99.90
42019;DHT22;27703;51.980;5.848;2022-12-18T04:56:19;-3.00;99.90
42019;DHT22;27703;51.980;5.848;2022-12-18T04:58:45;-3.00;99.90
42019;DHT22;27703;51.980;5.848;2022-12-18T05:01:12;-3.10;99.90
42019;DHT22;27703;51.980;5.848;2022-12-18T05:03:38;-3.10;99.90
42019;DHT22;27703;51.980;5.848;2022-12-18T05:06:05;-3.00;99.90
42019;DHT22;27703;51.980;5.848;2022-12-18T05:08:31;-3.10;99.90
42019;DHT22;27703;51.980;5.848;2022-12-18T05:11:01;-3.10;99.90
42019;DHT22;27703;51.980;5.848;2022-12-18T05:13:28;-3.10;99.90
42019;DHT22;27703;51.980;5.848;2022-12-18T05:15:54;-3.10;99.90
42019;DHT22;27703;51.980;5.848;2022-12-18T05:18:21;-3.10;99.90
42019;DHT22;27703;51.980;5.848;2022-12-18T05:20:46;-3.10;99.90
42019;DHT22;27703;51.980;5.848;2022-12-18T05:23:12;-3.10;99.90
42019;DHT22;27703;51.980;5.848;2022-12-18T05:25:38;-3.10;99.90
42019;DHT22;27703;51.980;5.848;2022-12-18T05:28:03;-3.10;99.90
42019;DHT22;27703;51.980;5.848;2022-12-18T05:30:29;-3.10;99.90
42019;DHT22;27703;51.980;5.848;2022-12-18T05:32:55;-3.10;99.90
42019;DHT22;27703;51.980;5.848;2022-12-18T05:35:20;-3.10;99.90
42019;DHT22;27703;51.980;5.848;2022-12-18T05:37:46;-3.10;99.90
42019;DHT22;27703;51.980;5.848;2022-12-18T05:40:12;-3.10;99.90
42019;DHT22;27703;51.980;5.848;2022-12-18T05:42:37;-3.10;99.90
42019;DHT22;27703;51.980;5.848;2022-12-18T05:45:04;-3.10;99.90
42019;DHT22;27703;51.980;5.848;2022-12-18T05:47:30;-3.10;99.90
42019;DHT22;27703;51.980;5.848;2022-12-18T05:49:55;-3.10;99.90
42019;DHT22;27703;51.980;5.848;2022-12-18T05:52:21;-3.10;99.90
42019;DHT22;27703;51.980;5.848;2022-12-18T05:54:46;-3.10;99.90
42019;DHT22;27703;51.980;5.848;2022-12-18T05:57:12;-3.00;99.90
42019;DHT22;27703;51.980;5.848;2022-12-18T05:59:38;-3.00;99.90
42019;DHT22;27703;51.980;5.848;2022-12-18T06:02:04;-3.00;99.90
42019;DHT22;27703;51.980;5.848;2022-12-18T06:04:29;-3.00;99.90
42019;DHT22;27703;51.980;5.848;2022-12-18T06:06:55;-3.10;99.90
42019;DHT22;27703;51.980;5.848;2022-12-18T06:09:20;-3.00;99.90
42019;DHT22;27703;51.980;5.848;2022-12-18T06:11:46;-3.00;99.90
42019;DHT22;27703;51.980;5.848;2022-12-18T06:14:11;-3.00;99.90
42019;DHT22;27703;51.980;5.848;2022-12-18T06:16:37;-3.00;99.90
42019;DHT22;27703;51.980;5.848;2022-12-18T06:19:04;-3.00;99.90
42019;DHT22;27703;51.980;5.848;2022-12-18T06:21:32;-3.00;99.90
42019;DHT22;27703;51.980;5.848;2022-12-18T06:23:58;-3.00;99.90
42019;DHT22;27703;51.980;5.848;2022-12-18T06:26:24;-3.00;99.90
42019;DHT22;27703;51.980;5.848;2022-12-18T06:28:49;-3.00;99.90
42019;DHT22;27703;51.980;5.848;2022-12-18T06:31:15;-3.00;99.90
42019;DHT22;27703;51.980;5.848;2022-12-18T06:33:40;-3.00;99.90
42019;DHT22;27703;51.980;5.848;2022-12-18T06:36:11;-3.00;99.90
42019;DHT22;27703;51.980;5.848;2022-12-18T06:38:41;-3.00;99.90
42019;DHT22;27703;51.980;5.848;2022-12-18T06:41:12;-3.00;99.90
42019;DHT22;27703;51.980;5.848;2022-12-18T06:43:37;-3.00;99.90
42019;DHT22;27703;51.980;5.848;2022-12-18T06:46:04;-3.00;99.90
42019;DHT22;27703;51.980;5.848;2022-12-18T06:48:30;-3.00;99.90
42019;DHT22;27703;51.980;5.848;2022-12-18T06:50:56;-3.00;99.90
42019;DHT22;27703;51.980;5.848;2022-12-18T06:53:22;-3.00;99.90
42019;DHT22;27703;51.980;5.848;2022-12-18T06:55:47;-3.00;99.90
42019;DHT22;27703;51.980;5.848;2022-12-18T06:58:13;-3.00;99.90
42019;DHT22;27703;51.980;5.848;2022-12-18T07:00:38;-2.90;99.90
42019;DHT22;27703;51.980;5.848;2022-12-18T07:03:04;-3.00;99.90
42019;DHT22;27703;51.980;5.848;2022-12-18T07:05:29;-3.00;99.90
42019;DHT22;27703;51.980;5.848;2022-12-18T07:07:55;-3.00;99.90
42019;DHT22;27703;51.980;5.848;2022-12-18T07:10:21;-3.00;99.90
42019;DHT22;27703;51.980;5.848;2022-12-18T07:12:46;-3.00;99.90
42019;DHT22;27703;51.980;5.848;2022-12-18T07:15:12;-3.00;99.90
42019;DHT22;27703;51.980;5.848;2022-12-18T07:17:37;-3.00;99.90
42019;DHT22;27703;51.980;5.848;2022-12-18T07:20:03;-3.00;99.90
42019;DHT22;27703;51.980;5.848;2022-12-18T07:22:29;-3.00;99.90
42019;DHT22;27703;51.980;5.848;2022-12-18T07:24:55;-3.00;99.90
42019;DHT22;27703;51.980;5.848;2022-12-18T07:27:21;-3.00;99.90
42019;DHT22;27703;51.980;5.848;2022-12-18T07:29:46;-3.00;99.90
42019;DHT22;27703;51.980;5.848;2022-12-18T07:32:12;-2.90;99.90
42019;DHT22;27703;51.980;5.848;2022-12-18T07:34:37;-3.00;99.90
42019;DHT22;27703;51.980;5.848;2022-12-18T07:37:03;-3.00;99.90
42019;DHT22;27703;51.980;5.848;2022-12-18T07:39:29;-3.00;99.90
42019;DHT22;27703;51.980;5.848;2022-12-18T07:41:54;-2.90;99.90
42019;DHT22;27703;51.980;5.848;2022-12-18T07:44:39;-2.90;99.90
42019;DHT22;27703;51.980;5.848;2022-12-18T07:47:04;-2.90;99.90
42019;DHT22;27703;51.980;5.848;2022-12-18T07:49:30;-2.90;99.90
42019;DHT22;27703;51.980;5.848;2022-12-18T07:51:56;-2.90;99.90
42019;DHT22;27703;51.980;5.848;2022-12-18T07:54:23;-2.90;99.90
42019;DHT22;27703;51.980;5.848;2022-12-18T07:56:49;-2.90;99.90
42019;DHT22;27703;51.980;5.848;2022-12-18T07:59:14;-2.90;99.90
42019;DHT22;27703;51.980;5.848;2022-12-18T08:01:40;-2.90;99.90
42019;DHT22;27703;51.980;5.848;2022-12-18T08:04:05;-2.80;99.90
42019;DHT22;27703;51.980;5.848;2022-12-18T08:06:31;-2.80;99.90
42019;DHT22;27703;51.980;5.848;2022-12-18T08:08:57;-2.80;99.90
42019;DHT22;27703;51.980;5.848;2022-12-18T08:11:24;-2.80;99.90
42019;DHT22;27703;51.980;5.848;2022-12-18T08:13:50;-2.70;99.90
42019;DHT22;27703;51.980;5.848;2022-12-18T08:16:16;-2.70;99.90
42019;DHT22;27703;51.980;5.848;2022-12-18T08:18:42;-2.70;99.90
42019;DHT22;27703;51.980;5.848;2022-12-18T08:21:14;-2.70;99.90
42019;DHT22;27703;51.980;5.848;2022-12-18T08:23:40;-2.60;99.90
42019;DHT22;27703;51.980;5.848;2022-12-18T08:26:07;-2.60;99.90
42019;DHT22;27703;51.980;5.848;2022-12-18T08:28:33;-2.60;99.90
42019;DHT22;27703;51.980;5.848;2022-12-18T08:30:59;-2.50;99.90
42019;DHT22;27703;51.980;5.848;2022-12-18T08:33:25;-2.50;99.90
42019;DHT22;27703;51.980;5.848;2022-12-18T08:35:51;-2.50;99.90
42019;DHT22;27703;51.980;5.848;2022-12-18T08:38:17;-2.40;99.90
42019;DHT22;27703;51.980;5.848;2022-12-18T08:40:43;-2.40;99.90
42019;DHT22;27703;51.980;5.848;2022-12-18T08:43:10;-2.40;99.90
42019;DHT22;27703;51.980;5.848;2022-12-18T08:45:54;-2.30;99.90
42019;DHT22;27703;51.980;5.848;2022-12-18T08:48:19;-2.30;99.90
42019;DHT22;27703;51.980;5.848;2022-12-18T08:50:57;-2.30;99.90
42019;DHT22;27703;51.980;5.848;2022-12-18T08:53:24;-2.20;99.90
42019;DHT22;27703;51.980;5.848;2022-12-18T08:55:50;-2.20;99.90
42019;DHT22;27703;51.980;5.848;2022-12-18T08:58:16;-2.20;99.90
42019;DHT22;27703;51.980;5.848;2022-12-18T09:00:41;-2.20;99.90
42019;DHT22;27703;51.980;5.848;2022-12-18T09:03:17;-2.10;99.90
42019;DHT22;27703;51.980;5.848;2022-12-18T09:05:45;-2.10;99.90
42019;DHT22;27703;51.980;5.848;2022-12-18T09:08:11;-2.00;99.90
42019;DHT22;27703;51.980;5.848;2022-12-18T09:10:47;-2.00;99.90
42019;DHT22;27703;51.980;5.848;2022-12-18T09:13:13;-1.90;99.90
42019;DHT22;27703;51.980;5.848;2022-12-18T09:15:53;-1.80;99.90
42019;DHT22;27703;51.980;5.848;2022-12-18T09:18:20;-1.70;99.90
42019;DHT22;27703;51.980;5.848;2022-12-18T09:20:46;-1.70;99.90
42019;DHT22;27703;51.980;5.848;2022-12-18T09:23:12;-1.60;99.90
42019;DHT22;27703;51.980;5.848;2022-12-18T09:25:38;-1.60;99.90
42019;DHT22;27703;51.980;5.848;2022-12-18T09:28:09;-1.60;99.90
42019;DHT22;27703;51.980;5.848;2022-12-18T09:30:37;-1.50;99.90
42019;DHT22;27703;51.980;5.848;2022-12-18T09:33:02;-1.50;99.90
42019;DHT22;27703;51.980;5.848;2022-12-18T09:35:28;-1.40;99.90
42019;DHT22;27703;51.980;5.848;2022-12-18T09:37:54;-1.40;99.90
42019;DHT22;27703;51.980;5.848;2022-12-18T09:40:22;-1.30;99.90
42019;DHT22;27703;51.980;5.848;2022-12-18T09:42:54;-1.30;99.90
42019;DHT22;27703;51.980;5.848;2022-12-18T09:45:21;-1.20;99.90
42019;DHT22;27703;51.980;5.848;2022-12-18T09:47:48;-1.20;99.90
42019;DHT22;27703;51.980;5.848;2022-12-18T09:50:26;-1.20;99.90
42019;DHT22;27703;51.980;5.848;2022-12-18T09:52:57;-1.10;99.90
42019;DHT22;27703;51.980;5.848;2022-12-18T09:55:33;-1.20;99.90
42019;DHT22;27703;51.980;5.848;2022-12-18T09:58:13;-1.10;99.90
42019;DHT22;27703;51.980;5.848;2022-12-18T10:00:42;-1.10;99.90
42019;DHT22;27703;51.980;5.848;2022-12-18T10:03:12;-1.10;99.90
42019;DHT22;27703;51.980;5.848;2022-12-18T10:11:40;-1.00;99.90
42019;DHT22;27703;51.980;5.848;2022-12-18T10:19:53;-0.90;99.90
42019;DHT22;27703;51.980;5.848;2022-12-18T10:22:41;-0.90;99.90
42019;DHT22;27703;51.980;5.848;2022-12-18T10:25:27;-0.90;99.90
42019;DHT22;27703;51.980;5.848;2022-12-18T10:28:14;-0.80;99.90
42019;DHT22;27703;51.980;5.848;2022-12-18T10:30:41;-0.80;99.90
42019;DHT22;27703;51.980;5.848;2022-12-18T10:33:22;-0.80;99.90
42019;DHT22;27703;51.980;5.848;2022-12-18T10:35:54;-0.70;99.90
42019;DHT22;27703;51.980;5.848;2022-12-18T10:38:25;-0.70;99.90
42019;DHT22;27703;51.980;5.848;2022-12-18T10:43:29;-0.60;99.90
42019;DHT22;27703;51.980;5.848;2022-12-18T10:46:15;-0.60;99.90
42019;DHT22;27703;51.980;5.848;2022-12-18T10:51:33;-0.60;99.90
42019;DHT22;27703;51.980;5.848;2022-12-18T10:56:42;-0.50;99.90
42019;DHT22;27703;51.980;5.848;2022-12-18T10:59:10;-0.50;99.90
42019;DHT22;27703;51.980;5.848;2022-12-18T11:01:52;-0.40;99.90
42019;DHT22;27703;51.980;5.848;2022-12-18T11:04:31;-0.40;99.90
42019;DHT22;27703;51.980;5.848;2022-12-18T11:07:08;-0.40;99.90
42019;DHT22;27703;51.980;5.848;2022-12-18T11:09:35;-0.30;99.90
42019;DHT22;27703;51.980;5.848;2022-12-18T11:12:04;-0.30;99.90
42019;DHT22;27703;51.980;5.848;2022-12-18T11:14:43;-0.30;99.90
42019;DHT22;27703;51.980;5.848;2022-12-18T11:17:21;-0.30;99.90
42019;DHT22;27703;51.980;5.848;2022-12-18T11:19:59;-0.30;99.90
42019;DHT22;27703;51.980;5.848;2022-12-18T11:22:27;-0.20;99.90
42019;DHT22;27703;51.980;5.848;2022-12-18T11:24:59;-0.20;99.90
42019;DHT22;27703;51.980;5.848;2022-12-18T11:27:26;-0.20;99.90
42019;DHT22;27703;51.980;5.848;2022-12-18T11:30:06;-0.20;99.90
42019;DHT22;27703;51.980;5.848;2022-12-18T11:32:39;-0.10;99.90
42019;DHT22;27703;51.980;5.848;2022-12-18T11:35:17;-0.10;99.90
42019;DHT22;27703;51.980;5.848;2022-12-18T11:37:49;-0.10;99.90
42019;DHT22;27703;51.980;5.848;2022-12-18T11:40:19;-0.10;99.90
42019;DHT22;27703;51.980;5.848;2022-12-18T11:42:54;-0.10;99.90
42019;DHT22;27703;51.980;5.848;2022-12-18T11:45:29;0.00;99.90
42019;DHT22;27703;51.980;5.848;2022-12-18T11:48:25;0.00;99.90
42019;DHT22;27703;51.980;5.848;2022-12-18T11:50:58;0.00;99.90
42019;DHT22;27703;51.980;5.848;2022-12-18T11:53:26;0.10;99.90
42019;DHT22;27703;51.980;5.848;2022-12-18T11:58:46;0.10;99.90
42019;DHT22;27703;51.980;5.848;2022-12-18T12:04:16;0.20;99.90
42019;DHT22;27703;51.980;5.848;2022-12-18T12:09:55;0.20;99.90
42019;DHT22;27703;51.980;5.848;2022-12-18T12:12:38;0.20;99.90
42019;DHT22;27703;51.980;5.848;2022-12-18T12:21:39;0.30;99.90
42019;DHT22;27703;51.980;5.848;2022-12-18T12:29:59;0.30;99.90
42019;DHT22;27703;51.980;5.848;2022-12-18T12:32:45;0.40;99.90
42019;DHT22;27703;51.980;5.848;2022-12-18T12:40:45;0.40;99.90
42019;DHT22;27703;51.980;5.848;2022-12-18T12:43:28;0.40;99.90
42019;DHT22;27703;51.980;5.848;2022-12-18T12:46:10;0.40;99.90
42019;DHT22;27703;51.980;5.848;2022-12-18T12:48:41;0.40;99.90
42019;DHT22;27703;51.980;5.848;2022-12-18T12:51:13;0.40;99.90
42019;DHT22;27703;51.980;5.848;2022-12-18T12:53:39;0.40;99.90
42019;DHT22;27703;51.980;5.848;2022-12-18T12:56:08;0.40;99.90
42019;DHT22;27703;51.980;5.848;2022-12-18T12:58:54;0.50;99.90
42019;DHT22;27703;51.980;5.848;2022-12-18T13:07:10;0.50;99.90
42019;DHT22;27703;51.980;5.848;2022-12-18T13:10:19;0.50;99.90
42019;DHT22;27703;51.980;5.848;2022-12-18T13:12:57;0.50;99.90
42019;DHT22;27703;51.980;5.848;2022-12-18T13:15:37;0.50;99.90
42019;DHT22;27703;51.980;5.848;2022-12-18T13:23:36;0.50;99.90
42019;DHT22;27703;51.980;5.848;2022-12-18T13:31:28;0.60;99.90
42019;DHT22;27703;51.980;5.848;2022-12-18T13:34:25;0.60;99.90
42019;DHT22;27703;51.980;5.848;2022-12-18T13:36:53;0.60;99.90
42019;DHT22;27703;51.980;5.848;2022-12-18T13:41:50;0.60;99.90
42019;DHT22;27703;51.980;5.848;2022-12-18T13:44:35;0.60;99.90
42019;DHT22;27703;51.980;5.848;2022-12-18T13:47:04;0.60;99.90
42019;DHT22;27703;51.980;5.848;2022-12-18T13:49:41;0.60;99.90
42019;DHT22;27703;51.980;5.848;2022-12-18T13:52:19;0.60;99.90
42019;DHT22;27703;51.980;5.848;2022-12-18T13:54:55;0.60;99.90
42019;DHT22;27703;51.980;5.848;2022-12-18T13:57:27;0.60;99.90
42019;DHT22;27703;51.980;5.848;2022-12-18T13:59:53;0.60;99.90
42019;DHT22;27703;51.980;5.848;2022-12-18T14:02:25;0.60;99.90
42019;DHT22;27703;51.980;5.848;2022-12-18T14:04:51;0.60;99.90
42019;DHT22;27703;51.980;5.848;2022-12-18T14:07:28;0.60;99.90
42019;DHT22;27703;51.980;5.848;2022-12-18T14:09:58;0.60;99.90
42019;DHT22;27703;51.980;5.848;2022-12-18T14:12:36;0.60;99.90
42019;DHT22;27703;51.980;5.848;2022-12-18T14:18:02;0.60;99.90
42019;DHT22;27703;51.980;5.848;2022-12-18T14:20:35;0.60;99.90
42019;DHT22;27703;51.980;5.848;2022-12-18T14:23:01;0.60;99.90
42019;DHT22;27703;51.980;5.848;2022-12-18T14:25:30;0.60;99.90
42019;DHT22;27703;51.980;5.848;2022-12-18T14:30:37;0.60;99.90
42019;DHT22;27703;51.980;5.848;2022-12-18T14:35:39;0.60;99.90
42019;DHT22;27703;51.980;5.848;2022-12-18T14:41:11;0.70;99.90
42019;DHT22;27703;51.980;5.848;2022-12-18T14:43:40;0.70;99.90
42019;DHT22;27703;51.980;5.848;2022-12-18T14:46:34;0.60;99.90
42019;DHT22;27703;51.980;5.848;2022-12-18T14:49:18;0.70;99.90
42019;DHT22;27703;51.980;5.848;2022-12-18T14:51:49;0.60;99.90
42019;DHT22;27703;51.980;5.848;2022-12-18T14:54:18;0.60;99.90
42019;DHT22;27703;51.980;5.848;2022-12-18T14:56:47;0.60;99.90
42019;DHT22;27703;51.980;5.848;2022-12-18T14:59:21;0.60;99.90
42019;DHT22;27703;51.980;5.848;2022-12-18T15:02:26;0.60;99.90
42019;DHT22;27703;51.980;5.848;2022-12-18T15:05:15;0.60;99.90
42019;DHT22;27703;51.980;5.848;2022-12-18T15:07:43;0.60;99.90
42019;DHT22;27703;51.980;5.848;2022-12-18T15:20:31;0.60;99.90
42019;DHT22;27703;51.980;5.848;2022-12-18T15:22:57;0.60;99.90
42019;DHT22;27703;51.980;5.848;2022-12-18T15:25:34;0.60;99.90
42019;DHT22;27703;51.980;5.848;2022-12-18T15:28:02;0.60;99.90
42019;DHT22;27703;51.980;5.848;2022-12-18T15:30:28;0.60;99.90
42019;DHT22;27703;51.980;5.848;2022-12-18T15:33:22;0.60;99.90
42019;DHT22;27703;51.980;5.848;2022-12-18T15:35:59;0.60;99.90
42019;DHT22;27703;51.980;5.848;2022-12-18T15:38:25;0.60;99.90
42019;DHT22;27703;51.980;5.848;2022-12-18T15:40:51;0.60;99.90
42019;DHT22;27703;51.980;5.848;2022-12-18T15:43:18;0.60;99.90
42019;DHT22;27703;51.980;5.848;2022-12-18T15:48:45;0.60;99.90
42019;DHT22;27703;51.980;5.848;2022-12-18T15:51:56;0.60;99.90
42019;DHT22;27703;51.980;5.848;2022-12-18T15:54:14;0.60;99.90
42019;DHT22;27703;51.980;5.848;2022-12-18T15:56:41;0.60;99.90
42019;DHT22;27703;51.980;5.848;2022-12-18T15:59:25;0.60;99.90
42019;DHT22;27703;51.980;5.848;2022-12-18T16:01:52;0.60;99.90
42019;DHT22;27703;51.980;5.848;2022-12-18T16:04:21;0.60;99.90
42019;DHT22;27703;51.980;5.848;2022-12-18T16:06:48;0.60;99.90
42019;DHT22;27703;51.980;5.848;2022-12-18T16:09:13;0.60;99.90
42019;DHT22;27703;51.980;5.848;2022-12-18T16:11:41;0.60;99.90
42019;DHT22;27703;51.980;5.848;2022-12-18T16:14:21;0.60;99.90
42019;DHT22;27703;51.980;5.848;2022-12-18T16:16:49;0.60;99.90
42019;DHT22;27703;51.980;5.848;2022-12-18T16:19:15;0.60;99.90
42019;DHT22;27703;51.980;5.848;2022-12-18T16:21:42;0.50;99.90
42019;DHT22;27703;51.980;5.848;2022-12-18T16:24:22;0.50;99.90
42019;DHT22;27703;51.980;5.848;2022-12-18T16:26:48;0.60;99.90
42019;DHT22;27703;51.980;5.848;2022-12-18T16:29:14;0.50;99.90
42019;DHT22;27703;51.980;5.848;2022-12-18T16:31:40;0.50;99.90
42019;DHT22;27703;51.980;5.848;2022-12-18T16:34:14;0.50;99.90
42019;DHT22;27703;51.980;5.848;2022-12-18T16:36:43;0.50;99.90
42019;DHT22;27703;51.980;5.848;2022-12-18T16:39:08;0.50;99.90
42019;DHT22;27703;51.980;5.848;2022-12-18T16:41:34;0.50;99.90
42019;DHT22;27703;51.980;5.848;2022-12-18T16:44:01;0.50;99.90
42019;DHT22;27703;51.980;5.848;2022-12-18T16:46:26;0.50;99.90
42019;DHT22;27703;51.980;5.848;2022-12-18T16:48:52;0.50;99.90
42019;DHT22;27703;51.980;5.848;2022-12-18T16:51:18;0.50;99.90
42019;DHT22;27703;51.980;5.848;2022-12-18T16:53:43;0.50;99.90
42019;DHT22;27703;51.980;5.848;2022-12-18T16:56:09;0.50;99.90
42019;DHT22;27703;51.980;5.848;2022-12-18T16:58:35;0.50;99.90
42019;DHT22;27703;51.980;5.848;2022-12-18T17:01:01;0.50;99.90
42019;DHT22;27703;51.980;5.848;2022-12-18T17:03:26;0.50;99.90
42019;DHT22;27703;51.980;5.848;2022-12-18T17:05:52;0.50;99.90
42019;DHT22;27703;51.980;5.848;2022-12-18T17:08:17;0.40;99.90
42019;DHT22;27703;51.980;5.848;2022-12-18T17:10:43;0.40;99.90
42019;DHT22;27703;51.980;5.848;2022-12-18T17:13:08;0.40;99.90
42019;DHT22;27703;51.980;5.848;2022-12-18T17:15:35;0.40;99.90
42019;DHT22;27703;51.980;5.848;2022-12-18T17:18:00;0.40;99.90
42019;DHT22;27703;51.980;5.848;2022-12-18T17:20:26;0.40;99.90
42019;DHT22;27703;51.980;5.848;2022-12-18T17:22:51;0.40;99.90
42019;DHT22;27703;51.980;5.848;2022-12-18T17:25:17;0.40;99.90
42019;DHT22;27703;51.980;5.848;2022-12-18T17:27:43;0.40;99.90
42019;DHT22;27703;51.980;5.848;2022-12-18T17:30:09;0.40;99.90
42019;DHT22;27703;51.980;5.848;2022-12-18T17:32:34;0.50;99.90